Time;durP1;ratioP1;P1;durP2;ratioP2;P2;SDS_P1;SDS_P2;PMS_P1;PMS_P2;Temp;Humidity;BMP_temperature;BMP_pressure;BME280_temperature;BME280_humidity;BME280_pressure;Samples;Min_cycle;Max_cycle;Signal;HPM_P1;HPM_P2
2022/05/05 00:00:15;;;;;;;5.53;2.72;;;;;;;3.13;48.28;102011.84;5068476;28;20035;-83
2022/05/05 00:02:41;;;;;;;8.32;2.22;;;;;;;2.94;48.47;102012.56;5046302;28;20045;-82
2022/05/05 00:05:07;;;;;;;6.53;2.40;;;;;;;2.97;48.44;102010.00;5048359;28;20066;-81
2022/05/05 00:07:32;;;;;;;7.80;3.22;;;;;;;3.07;48.54;102016.09;5058184;28;20475;-80
2022/05/05 00:09:58;;;;;;;4.07;2.33;;;;;;;3.09;48.07;102012.69;5048463;28;20071;-80
2022/05/05 00:15:08;;;;;;;6.05;1.85;;;;;;;3.03;48.25;102015.22;5069165;28;20029;-82
2022/05/05 00:17:34;;;;;;;3.35;1.60;;;;;;;2.91;48.57;102007.34;5069722;28;20344;-83
2022/05/05 00:20:00;;;;;;;3.22;2.08;;;;;;;2.98;48.74;102017.75;5070640;28;20074;-81
2022/05/05 00:22:26;;;;;;;3.90;1.65;;;;;;;3.12;48.24;102015.31;5049594;28;20053;-80
2022/05/05 00:24:52;;;;;;;6.90;2.60;;;;;;;3.07;48.16;102005.75;5063016;28;20044;-77
2022/05/05 00:27:18;;;;;;;4.10;1.92;;;;;;;3.15;48.00;102007.56;5065946;28;20487;-81
2022/05/05 00:29:44;;;;;;;4.28;2.63;;;;;;;3.09;48.05;102004.97;5049886;28;20060;-80
2022/05/05 00:32:11;;;;;;;6.43;2.40;;;;;;;3.06;48.17;102007.50;5058827;28;20079;-80
2022/05/05 00:34:37;;;;;;;4.53;2.17;;;;;;;3.05;48.09;102008.34;5063951;28;20032;-80
2022/05/05 00:37:03;;;;;;;2.78;1.50;;;;;;;2.85;48.16;102003.00;5033407;28;20097;-80
2022/05/05 00:39:29;;;;;;;4.43;2.33;;;;;;;2.77;48.61;102014.94;5059268;28;20067;-77
2022/05/05 00:41:55;;;;;;;3.22;1.90;;;;;;;2.87;48.71;102008.19;5040235;28;20057;-79
2022/05/05 00:44:21;;;;;;;2.70;1.15;;;;;;;2.92;48.45;102004.78;5043612;28;20417;-80
2022/05/05 00:46:51;;;;;;;4.57;2.30;;;;;;;2.89;48.76;102009.03;5055286;28;20039;-80
2022/05/05 00:49:17;;;;;;;3.58;1.95;;;;;;;3.02;48.66;102010.03;5050561;28;20044;-80
2022/05/05 00:51:43;;;;;;;7.95;1.50;;;;;;;3.08;48.61;102013.53;5066937;28;20035;-79
2022/05/05 00:54:08;;;;;;;1.77;1.38;;;;;;;3.15;48.50;102009.28;5049468;28;20037;-78
2022/05/05 00:56:34;;;;;;;2.67;1.80;;;;;;;3.10;48.36;102006.66;5067912;28;20020;-81
2022/05/05 00:59:01;;;;;;;6.55;2.55;;;;;;;3.03;48.55;102004.88;5065731;28;20063;-80
2022/05/05 01:01:27;;;;;;;7.22;2.17;;;;;;;2.84;48.67;102005.53;5046121;28;20041;-80
2022/05/05 01:03:53;;;;;;;4.97;2.45;;;;;;;2.89;48.65;102006.44;5042157;28;20079;-82
2022/05/05 01:06:19;;;;;;;2.05;1.80;;;;;;;3.04;48.50;102009.19;5054011;28;20036;-81
2022/05/05 01:08:46;;;;;;;4.35;1.83;;;;;;;3.09;48.32;102004.97;5047989;28;20036;-82
2022/05/05 01:11:12;;;;;;;6.43;2.30;;;;;;;3.01;48.39;102000.56;5041510;28;20036;-81
2022/05/05 01:13:39;;;;;;;5.20;2.08;;;;;;;2.91;48.48;101999.59;5049421;28;20086;-81
2022/05/05 01:16:07;;;;;;;2.10;1.55;;;;;;;3.04;48.32;101998.84;5049837;28;20590;-80
2022/05/05 01:18:32;;;;;;;4.57;1.73;;;;;;;3.15;48.22;102002.41;5055572;28;20119;-80
2022/05/05 01:20:58;;;;;;;5.80;2.30;;;;;;;3.13;48.20;102006.69;5045283;28;20107;-80
2022/05/05 01:23:24;;;;;;;3.55;1.77;;;;;;;3.19;47.99;102011.91;5048328;28;20051;-80
2022/05/05 01:28:39;;;;;;;4.15;2.05;;;;;;;3.05;48.31;102008.34;5063190;28;20044;-78
2022/05/05 01:31:07;;;;;;;7.32;2.22;;;;;;;2.92;48.37;102007.38;5067490;28;20405;-80
2022/05/05 01:33:33;;;;;;;7.75;1.75;;;;;;;2.88;48.48;102007.31;5040311;28;20441;-80
2022/05/05 01:35:59;;;;;;;3.38;2.25;;;;;;;2.83;48.42;102007.28;5047227;28;20017;-80
2022/05/05 01:38:30;;;;;;;6.28;2.13;;;;;;;2.74;48.57;102008.03;5058237;28;20403;-80
2022/05/05 01:40:55;;;;;;;6.15;2.20;;;;;;;2.85;48.78;102008.16;5058836;28;20029;-80
2022/05/05 01:43:21;;;;;;;2.33;1.50;;;;;;;2.98;48.71;102011.75;5044608;28;20052;-79
2022/05/05 01:45:47;;;;;;;3.65;1.65;;;;;;;2.93;48.59;102010.81;5051355;28;20520;-79
2022/05/05 01:48:13;;;;;;;5.30;2.25;;;;;;;2.80;48.61;102003.78;5046688;28;20102;-79
2022/05/05 01:50:39;;;;;;;3.42;1.50;;;;;;;2.84;48.66;102014.16;5050015;28;20036;-77
2022/05/05 01:53:05;;;;;;;3.85;1.80;;;;;;;2.76;48.73;102011.50;5044296;28;20043;-78
2022/05/05 01:55:32;;;;;;;3.60;2.38;;;;;;;2.92;48.49;102011.66;5042199;28;20029;-77
2022/05/05 01:57:58;;;;;;;2.80;1.95;;;;;;;3.01;48.47;102016.06;5043849;28;20052;-79
2022/05/05 02:00:25;;;;;;;7.85;2.28;;;;;;;2.96;48.24;102018.59;5046773;28;20024;-80
2022/05/05 02:02:51;;;;;;;6.90;2.85;;;;;;;3.01;48.59;102022.09;5043256;28;20047;-79
2022/05/05 02:05:17;;;;;;;4.72;2.40;;;;;;;2.86;48.40;102021.94;5061309;28;20029;-82
2022/05/05 02:07:43;;;;;;;3.97;2.20;;;;;;;2.72;48.36;102026.94;5062865;28;20044;-80
2022/05/05 02:10:14;;;;;;;4.70;2.08;;;;;;;2.74;48.67;102028.69;5061126;28;20513;-79
2022/05/05 02:12:40;;;;;;;6.43;2.10;;;;;;;2.79;48.69;102027.88;5042864;28;20033;-79
2022/05/05 02:15:08;;;;;;;5.70;2.50;;;;;;;2.81;48.97;102028.75;5046352;28;20036;-80
2022/05/05 02:17:53;;;;;;;4.50;2.50;;;;;;;2.97;48.45;102040.97;5043875;28;20044;-82
2022/05/05 02:20:19;;;;;;;5.97;2.63;;;;;;;2.88;48.32;102035.72;5062793;28;20243;-79
2022/05/05 02:22:44;;;;;;;3.70;2.35;;;;;;;2.69;48.50;102032.94;5058638;28;20715;-80
2022/05/05 02:25:10;;;;;;;5.25;2.92;;;;;;;2.62;48.80;102038.84;5039510;28;20124;-79
2022/05/05 02:27:50;;;;;;;8.27;3.65;;;;;;;2.80;48.75;102039.94;5041855;28;20587;-78
2022/05/05 02:30:21;;;;;;;3.00;2.30;;;;;;;2.81;48.67;102044.25;5047477;28;20123;-80
2022/05/05 02:32:47;;;;;;;3.70;2.83;;;;;;;2.90;48.35;102044.34;5063088;28;20048;-80
2022/05/05 02:35:14;;;;;;;6.80;2.92;;;;;;;2.79;48.52;102046.81;5042509;28;20032;-81
2022/05/05 02:40:24;;;;;;;5.75;2.80;;;;;;;2.83;48.65;102047.72;5060474;28;20118;-79
2022/05/05 02:42:50;;;;;;;7.10;3.63;;;;;;;2.69;48.76;102053.59;5046490;28;20825;-79
2022/05/05 02:45:15;;;;;;;4.45;2.83;;;;;;;2.76;48.86;102046.78;5065387;28;20115;-82
2022/05/05 02:47:41;;;;;;;3.90;2.50;;;;;;;2.93;49.17;102050.41;5044478;28;20068;-80
2022/05/05 02:50:07;;;;;;;3.55;2.47;;;;;;;3.07;48.69;102047.09;5063179;28;20113;-79
2022/05/05 02:52:32;;;;;;;6.82;2.92;;;;;;;3.17;48.57;102048.94;5039911;28;20213;-79
2022/05/05 02:54:58;;;;;;;6.43;3.40;;;;;;;3.32;48.46;102051.69;5067217;28;20040;-82
2022/05/05 02:57:24;;;;;;;7.57;3.03;;;;;;;3.34;48.21;102052.56;5059301;28;20063;-81
2022/05/05 02:59:54;;;;;;;6.15;2.83;;;;;;;3.31;48.11;102056.84;5064980;28;20059;-81
2022/05/05 03:02:20;;;;;;;6.50;2.60;;;;;;;3.18;48.54;102048.97;5065452;28;20049;-80
2022/05/05 03:04:46;;;;;;;7.47;2.45;;;;;;;3.36;48.49;102056.03;5077926;28;20045;-81
2022/05/05 03:07:12;;;;;;;4.43;1.88;;;;;;;3.37;48.24;102049.16;5063349;28;20052;-83
2022/05/05 03:09:39;;;;;;;3.40;1.95;;;;;;;3.47;48.32;102050.09;5054174;28;20161;-79
2022/05/05 03:12:09;;;;;;;5.43;2.72;;;;;;;3.48;48.52;102050.09;5051736;28;20049;-82
2022/05/05 03:14:35;;;;;;;6.60;2.00;;;;;;;3.52;48.08;102041.53;5067404;28;20024;-82
2022/05/05 03:17:00;;;;;;;3.47;1.50;;;;;;;3.43;48.40;102046.63;5066790;28;20714;-78
2022/05/05 03:19:26;;;;;;;7.95;2.25;;;;;;;3.58;48.38;102036.41;5065352;28;20029;-80
2022/05/05 03:21:53;;;;;;;6.97;2.10;;;;;;;3.72;48.35;102053.75;5043247;28;20493;-79
2022/05/05 03:24:18;;;;;;;4.30;2.13;;;;;;;3.77;48.10;102049.47;5048014;28;20032;-80
2022/05/05 03:26:44;;;;;;;6.65;2.05;;;;;;;3.74;48.02;102052.91;5065851;28;20410;-81
2022/05/05 03:29:09;;;;;;;3.95;2.17;;;;;;;3.61;47.92;102051.09;5068529;28;20471;-78
2022/05/05 03:31:35;;;;;;;3.00;2.17;;;;;;;3.66;48.44;102048.53;5066855;28;20033;-81
2022/05/05 03:34:01;;;;;;;5.07;2.33;;;;;;;3.62;48.15;102057.09;5064196;28;20043;-80
2022/05/05 03:36:26;;;;;;;4.25;1.75;;;;;;;3.70;48.37;102056.31;5064818;28;20029;-80
2022/05/05 03:38:54;;;;;;;6.03;2.40;;;;;;;3.86;48.05;102056.44;5048879;28;20028;-79
2022/05/05 03:41:20;;;;;;;3.60;2.03;;;;;;;3.92;48.05;102062.50;5065265;28;20650;-80
2022/05/05 03:43:45;;;;;;;6.97;2.88;;;;;;;3.97;47.80;102060.81;5044820;28;20040;-81
2022/05/05 03:46:11;;;;;;;6.05;2.60;;;;;;;3.86;48.02;102056.44;5043775;28;20055;-79
2022/05/05 03:48:37;;;;;;;2.58;2.13;;;;;;;3.88;48.01;102059.91;5047618;28;20045;-81
2022/05/05 03:51:02;;;;;;;6.70;2.53;;;;;;;3.94;47.49;102065.09;5051194;28;20059;-81
2022/05/05 03:53:28;;;;;;;5.70;3.58;;;;;;;3.84;47.94;102059.00;5048571;28;20029;-77
2022/05/05 03:55:54;;;;;;;4.40;2.42;;;;;;;3.86;48.18;102062.47;5044660;28;20020;-80
2022/05/05 03:58:19;;;;;;;4.43;2.47;;;;;;;3.96;47.97;102061.69;5064794;28;20367;-79
2022/05/05 04:00:46;;;;;;;8.13;2.72;;;;;;;3.90;48.10;102059.06;5048662;28;20028;-78
2022/05/05 04:03:30;;;;;;;7.50;3.60;;;;;;;3.91;47.61;102065.94;5043321;28;20029;-78
2022/05/05 04:05:58;;;;;;;4.90;2.58;;;;;;;4.09;47.99;102072.97;5047876;28;20033;-79
2022/05/05 04:08:27;;;;;;;3.17;2.55;;;;;;;4.07;48.14;102078.97;5049270;28;20051;-81
2022/05/05 04:10:53;;;;;;;4.10;2.30;;;;;;;4.05;47.82;102078.09;5066183;28;20638;-79
2022/05/05 04:13:19;;;;;;;5.07;2.80;;;;;;;4.10;48.17;102076.44;5047205;28;20430;-83
2022/05/05 04:15:45;;;;;;;6.32;2.97;;;;;;;4.07;47.73;102071.22;5051174;28;20486;-78
2022/05/05 04:18:11;;;;;;;7.35;3.40;;;;;;;4.24;47.78;102074.78;5051154;28;20044;-79
2022/05/05 04:20:36;;;;;;;6.43;3.10;;;;;;;4.25;48.00;102073.91;5059859;28;20020;-80
2022/05/05 04:23:02;;;;;;;7.35;4.13;;;;;;;4.16;47.66;102076.44;5043669;28;20059;-81
2022/05/05 04:25:28;;;;;;;6.00;3.33;;;;;;;4.11;48.02;102083.31;5064870;28;20306;-79
2022/05/05 04:27:53;;;;;;;6.80;3.72;;;;;;;4.19;48.27;102077.34;5046084;28;20144;-80
2022/05/05 04:30:19;;;;;;;5.63;3.53;;;;;;;4.27;48.22;102087.72;5046802;28;20485;-80
2022/05/05 04:32:45;;;;;;;8.77;4.20;;;;;;;4.36;47.04;102090.41;5046979;28;20056;-79
2022/05/05 04:35:11;;;;;;;7.97;4.15;;;;;;;4.35;48.20;102083.47;5060698;28;20036;-80
2022/05/05 04:37:39;;;;;;;9.23;4.25;;;;;;;4.40;48.48;102093.84;5047257;28;20078;-80
2022/05/05 04:40:05;;;;;;;6.35;4.22;;;;;;;4.59;48.03;102090.50;5058325;28;20067;-80
2022/05/05 04:42:30;;;;;;;6.50;3.72;;;;;;;4.70;47.83;102090.56;5048996;28;20036;-80
2022/05/05 04:44:56;;;;;;;7.25;4.90;;;;;;;4.84;47.30;102094.03;5064001;28;20065;-78
2022/05/05 04:47:22;;;;;;;11.88;4.43;;;;;;;4.88;46.77;102094.06;5061185;28;20045;-80
2022/05/05 04:49:47;;;;;;;13.18;4.78;;;;;;;4.88;47.25;102104.44;5046536;28;20041;-79
2022/05/05 04:52:13;;;;;;;13.23;4.40;;;;;;;5.04;46.79;102109.69;5065665;28;20040;-80
2022/05/05 04:54:39;;;;;;;7.28;3.85;;;;;;;5.07;47.18;102111.41;5058273;28;20203;-79
2022/05/05 04:57:04;;;;;;;7.63;4.30;;;;;;;5.05;46.96;102120.91;5062234;28;20044;-80
2022/05/05 04:59:30;;;;;;;5.38;4.03;;;;;;;5.09;46.71;102112.28;5047260;28;20104;-80
2022/05/05 05:01:56;;;;;;;7.05;4.15;;;;;;;5.04;46.53;102114.00;5065780;28;21232;-81
2022/05/05 05:04:21;;;;;;;6.25;4.60;;;;;;;5.06;46.81;102117.47;5064762;28;20024;-80
2022/05/05 05:06:47;;;;;;;10.80;4.93;;;;;;;5.18;46.47;102125.28;5047696;28;20048;-79
2022/05/05 05:09:12;;;;;;;9.68;4.45;;;;;;;5.20;45.67;102125.28;5043462;28;20020;-78
2022/05/05 05:11:38;;;;;;;7.68;4.25;;;;;;;5.17;45.80;102120.97;5042883;28;20136;-78
2022/05/05 05:14:03;;;;;;;7.22;4.05;;;;;;;5.31;46.28;102131.34;5049217;28;20054;-79
2022/05/05 05:16:29;;;;;;;6.95;4.18;;;;;;;5.46;46.13;102130.53;5047957;28;20028;-81
2022/05/05 05:18:55;;;;;;;11.57;4.68;;;;;;;5.46;45.33;102133.13;5042981;28;20056;-79
2022/05/05 05:21:21;;;;;;;10.55;4.68;;;;;;;5.41;45.75;102137.41;5064009;28;20028;-82
2022/05/05 05:23:47;;;;;;;8.20;4.05;;;;;;;5.61;45.87;102125.38;5064248;28;20556;-80
2022/05/05 05:26:13;;;;;;;11.50;4.43;;;;;;;5.65;45.59;102124.47;5051437;28;20027;-81
2022/05/05 05:28:40;;;;;;;7.22;4.40;;;;;;;5.74;46.19;102123.63;5048519;28;20178;-79
2022/05/05 05:31:05;;;;;;;13.38;4.50;;;;;;;5.96;46.26;102126.22;5062422;28;20032;-78
2022/05/05 05:33:31;;;;;;;6.90;3.65;;;;;;;6.20;45.79;102130.53;5040395;28;20056;-78
2022/05/05 05:35:56;;;;;;;11.77;4.00;;;;;;;6.38;44.93;102135.72;5061619;28;20029;-80
2022/05/05 05:38:22;;;;;;;4.88;2.85;;;;;;;6.40;44.60;102146.97;5075344;28;20036;-79
2022/05/05 05:40:48;;;;;;;7.68;3.83;;;;;;;6.46;43.93;102146.97;5045349;28;20027;-82
2022/05/05 05:43:14;;;;;;;8.98;3.58;;;;;;;6.43;43.82;102153.88;5044454;28;20514;-78
2022/05/05 05:45:39;;;;;;;7.05;3.97;;;;;;;6.53;44.30;102150.41;5047574;28;20372;-77
2022/05/05 05:48:06;;;;;;;6.57;3.75;;;;;;;6.61;44.03;102155.56;5043973;28;20114;-78
2022/05/05 05:50:32;;;;;;;8.07;2.67;;;;;;;6.94;43.45;102153.72;5064584;28;20652;-80
2022/05/05 05:52:58;;;;;;;8.13;3.55;;;;;;;7.06;43.05;102162.31;5065858;28;20084;-77
2022/05/05 05:55:24;;;;;;;8.48;2.95;;;;;;;7.16;42.97;102157.94;5045947;28;20072;-79
2022/05/05 05:57:50;;;;;;;8.38;3.60;;;;;;;7.19;42.67;102157.06;5047915;28;20053;-81
2022/05/05 06:00:16;;;;;;;6.68;3.67;;;;;;;7.22;42.55;102162.22;5069038;28;20040;-81
2022/05/05 06:05:26;;;;;;;6.18;3.25;;;;;;;7.29;42.93;102154.41;5066928;28;20710;-80
2022/05/05 06:08:00;;;;;;;7.25;3.65;;;;;;;7.18;43.49;102158.81;5066512;28;20044;-82
2022/05/05 06:10:26;;;;;;;8.38;3.63;;;;;;;6.98;42.58;102163.25;5064186;28;20052;-80
2022/05/05 06:12:53;;;;;;;5.85;3.35;;;;;;;6.71;44.10;102165.06;5048653;28;20036;-78
2022/05/05 06:15:19;;;;;;;9.13;3.30;;;;;;;7.01;43.35;102166.66;5050093;28;20055;-80
2022/05/05 06:17:44;;;;;;;6.53;3.28;;;;;;;7.01;43.44;102171.00;5050989;28;20153;-78
2022/05/05 06:20:11;;;;;;;4.57;3.42;;;;;;;7.03;42.53;102167.53;5051162;28;20767;-80
2022/05/05 06:22:37;;;;;;;6.50;3.88;;;;;;;6.97;43.36;102171.88;5049879;28;20040;-80
2022/05/05 06:25:04;;;;;;;5.28;3.13;;;;;;;7.03;42.80;102177.06;5048158;28;20028;-77
2022/05/05 06:27:30;;;;;;;6.00;3.83;;;;;;;6.68;43.60;102176.31;5061201;28;20045;-78
2022/05/05 06:29:55;;;;;;;8.65;4.22;;;;;;;7.07;43.36;102179.66;5062837;28;20471;-78
2022/05/05 06:32:21;;;;;;;3.15;2.63;;;;;;;7.48;43.30;102169.88;5029785;28;20467;-77
2022/05/05 06:34:47;;;;;;;5.07;3.08;;;;;;;7.50;42.92;102169.00;5045561;28;20037;-78
2022/05/05 06:37:12;;;;;;;5.43;3.20;;;;;;;7.70;42.90;102181.06;5062277;28;20032;-80
2022/05/05 06:39:38;;;;;;;7.10;3.20;;;;;;;7.92;42.25;102176.56;5065672;28;20041;-80
2022/05/05 06:42:04;;;;;;;4.10;3.55;;;;;;;7.94;42.20;102172.22;5052875;28;20437;-82
2022/05/05 06:44:32;;;;;;;4.90;3.00;;;;;;;7.75;42.83;102168.88;5066887;28;20383;-81
2022/05/05 06:46:58;;;;;;;4.88;3.30;;;;;;;7.94;42.11;102174.81;5062497;28;20552;-78
2022/05/05 06:49:24;;;;;;;5.05;2.83;;;;;;;7.76;41.82;102154.09;5065049;28;20111;-79
2022/05/05 06:51:50;;;;;;;8.82;5.10;;;;;;;8.03;41.57;102164.31;5064761;28;20514;-80
2022/05/05 06:54:16;;;;;;;6.05;3.45;;;;;;;8.01;42.13;102162.59;5070731;28;20045;-80
2022/05/05 06:56:41;;;;;;;5.35;3.53;;;;;;;8.32;42.35;102171.84;5048551;28;20039;-79
2022/05/05 06:59:07;;;;;;;7.10;3.70;;;;;;;8.24;41.04;102173.66;5051861;28;20036;-79
2022/05/05 07:07:02;;;;;;;7.63;4.13;;;;;;;8.17;41.56;102176.34;5066211;28;20041;-78
2022/05/05 07:12:12;;;;;;;8.65;4.35;;;;;;;8.38;41.77;102176.13;5062323;28;20541;-81
2022/05/05 07:14:37;;;;;;;12.88;4.30;;;;;;;8.39;41.01;102182.22;5068625;28;20029;-78
2022/05/05 07:17:04;;;;;;;7.88;3.65;;;;;;;8.40;41.09;102190.00;5063294;28;20110;-81
2022/05/05 07:19:29;;;;;;;25.00;5.18;;;;;;;8.58;40.17;102194.16;5047364;28;20028;-78
2022/05/05 07:21:55;;;;;;;6.43;3.65;;;;;;;8.69;40.20;102186.22;5041600;28;20037;-80
2022/05/05 07:24:20;;;;;;;8.80;3.15;;;;;;;8.83;40.23;102193.91;5066219;28;20031;-77
2022/05/05 07:26:46;;;;;;;17.63;4.75;;;;;;;8.85;39.38;102208.69;5043463;28;20029;-78
2022/05/05 07:29:12;;;;;;;7.18;3.75;;;;;;;9.11;38.99;102204.91;5064690;28;20021;-80
2022/05/05 07:31:37;;;;;;;6.72;2.53;;;;;;;9.35;39.16;102198.50;5064029;28;20062;-77
2022/05/05 07:34:03;;;;;;;8.25;3.13;;;;;;;9.43;38.82;102201.84;5063486;28;20049;-79
2022/05/05 07:36:29;;;;;;;6.55;2.17;;;;;;;9.72;38.33;102206.66;5059134;28;20092;-78
2022/05/05 07:38:54;;;;;;;8.63;3.70;;;;;;;10.05;37.70;102206.19;5042796;28;20044;-80
2022/05/05 07:41:22;;;;;;;6.25;2.40;;;;;;;9.72;37.16;102206.66;5041911;28;20040;-79
2022/05/05 07:43:50;;;;;;;3.75;1.80;;;;;;;9.81;37.62;102208.28;5063133;28;20036;-76
2022/05/05 07:46:19;;;;;;;6.20;2.67;;;;;;;9.50;37.57;102207.84;5040638;28;20035;-80
2022/05/05 07:48:45;;;;;;;6.22;2.00;;;;;;;9.48;37.52;102210.50;5048647;28;20054;-79
2022/05/05 07:51:11;;;;;;;6.80;3.58;;;;;;;9.26;37.72;102209.06;5060271;28;20024;-78
2022/05/05 07:53:37;;;;;;;7.28;2.35;;;;;;;10.09;36.85;102211.31;5044060;28;20585;-77
2022/05/05 07:56:03;;;;;;;11.30;2.85;;;;;;;10.25;36.80;102211.06;5042415;28;20451;-78
2022/05/05 07:58:29;;;;;;;6.85;2.60;;;;;;;10.26;36.97;102215.38;5041499;28;20461;-78
2022/05/05 08:00:54;;;;;;;9.30;2.03;;;;;;;10.69;35.82;102220.72;5060898;28;20029;-78
2022/05/05 08:03:20;;;;;;;4.47;2.22;;;;;;;10.58;35.57;102223.53;5040314;28;20460;-78
2022/05/05 08:05:46;;;;;;;5.13;2.35;;;;;;;10.89;36.07;102219.50;5047390;28;20519;-80
2022/05/05 08:08:11;;;;;;;3.80;1.92;;;;;;;11.32;35.45;102227.31;5038793;28;20040;-79
2022/05/05 08:10:38;;;;;;;4.60;2.17;;;;;;;11.55;35.17;102229.41;5059665;28;20036;-78
2022/05/05 08:13:04;;;;;;;11.95;2.45;;;;;;;10.47;36.10;102235.94;5042587;28;20032;-77
2022/05/05 08:15:30;;;;;;;4.43;2.20;;;;;;;11.01;35.14;102230.56;5044201;28;20033;-78
2022/05/05 08:17:56;;;;;;;9.52;1.75;;;;;;;11.75;34.81;102234.19;5038952;28;20197;-78
2022/05/05 08:20:22;;;;;;;5.25;2.47;;;;;;;11.88;35.08;102233.03;5045920;28;20942;-79
2022/05/05 08:22:48;;;;;;;4.13;1.33;;;;;;;12.31;35.00;102238.13;5060974;28;20036;-79
2022/05/05 08:30:43;;;;;;;5.55;3.63;;;;;;;13.39;30.33;102244.75;5063322;28;20337;-79
2022/05/05 08:33:10;;;;;;;6.82;2.50;;;;;;;14.07;30.81;102238.25;5064289;28;20737;-80
2022/05/05 08:35:36;;;;;;;6.63;1.88;;;;;;;14.73;28.40;102235.16;5063614;28;20498;-79
2022/05/05 08:38:02;;;;;;;2.97;1.20;;;;;;;14.25;30.01;102239.41;5044494;28;20037;-78
2022/05/05 08:40:28;;;;;;;4.82;1.77;;;;;;;14.76;28.84;102233.25;5038953;28;20097;-79
2022/05/05 08:42:54;;;;;;;2.95;1.50;;;;;;;14.71;28.46;102237.00;5044954;28;20067;-77
2022/05/05 08:45:20;;;;;;;8.57;1.83;;;;;;;15.08;27.50;102225.97;5057864;28;20029;-80
2022/05/05 08:47:47;;;;;;;7.32;1.80;;;;;;;14.97;27.83;102230.78;5046427;28;20036;-79
2022/05/05 08:50:14;;;;;;;6.93;2.45;;;;;;;15.53;28.35;102240.09;5049818;28;20056;-81
2022/05/05 08:52:46;;;;;;;9.98;2.10;;;;;;;15.89;26.45;102237.75;5063736;28;20040;-81
2022/05/05 08:55:14;;;;;;;5.25;2.08;;;;;;;15.63;25.70;102230.88;5064516;28;20025;-81
2022/05/05 08:57:41;;;;;;;2.30;1.80;;;;;;;15.97;26.05;102240.06;5044892;28;20044;-82
2022/05/05 09:00:07;;;;;;;3.80;1.73;;;;;;;16.31;25.96;102233.38;5057985;28;20042;-79
2022/05/05 09:02:32;;;;;;;5.32;2.15;;;;;;;15.86;26.38;102229.94;5068434;28;20049;-81
2022/05/05 09:04:58;;;;;;;11.20;2.60;;;;;;;15.70;26.07;102231.50;5044469;28;20040;-79
2022/05/05 09:07:49;;;;;;;7.43;1.98;;;;;;;16.60;24.11;102229.50;5061375;28;20060;-80
2022/05/05 09:10:41;;;;;;;4.00;1.57;;;;;;;16.35;24.14;102229.69;5060897;28;20036;-80
2022/05/05 09:13:07;;;;;;;4.28;1.40;;;;;;;14.57;25.09;102232.22;5045710;28;20262;-79
2022/05/05 09:15:35;;;;;;;5.95;1.85;;;;;;;15.31;25.48;102234.81;5043587;28;20048;-81
2022/05/05 09:18:16;;;;;;;4.88;1.60;;;;;;;15.52;24.96;102238.38;5046930;28;20865;-79
2022/05/05 09:20:49;;;;;;;8.27;2.55;;;;;;;16.30;23.96;102232.53;5084345;27;20174;-73
2022/05/05 09:24:34;;;;;;;5.22;1.98;;;;;;;16.36;24.57;102237.56;5058460;28;20048;-73
2022/05/05 09:26:28;;;;;;;4.40;1.98;;;;;;;16.23;24.54;102236.38;5056550;28;20041;-73
2022/05/05 09:28:55;;;;;;;7.95;1.98;;;;;;;17.34;22.17;102240.25;5064530;28;20037;-74
2022/05/05 09:31:21;;;;;;;3.65;1.17;;;;;;;17.52;20.53;102241.19;5053990;28;20166;-73
2022/05/05 09:33:47;;;;;;;2.58;1.50;;;;;;;17.66;20.41;102243.16;5050938;28;20060;-74
2022/05/05 09:36:19;;;;;;;3.58;1.23;;;;;;;16.91;23.50;102244.00;5053653;28;20032;-74
2022/05/05 09:38:53;;;;;;;5.65;1.08;;;;;;;17.77;20.88;102246.13;5053188;28;20045;-73
2022/05/05 09:41:26;;;;;;;1.90;0.98;;;;;;;17.22;21.79;102254.00;5053708;28;20310;-72
2022/05/05 09:44:02;;;;;;;3.17;1.58;;;;;;;17.59;21.31;102254.97;5048947;28;20048;-73
2022/05/05 09:46:28;;;;;;;3.58;1.60;;;;;;;17.96;22.43;102251.38;5068280;28;20508;-72
2022/05/05 09:49:07;;;;;;;7.22;1.20;;;;;;;18.21;20.37;102255.47;5049022;28;20041;-73
2022/05/05 09:51:42;;;;;;;3.88;1.42;;;;;;;18.70;21.00;102247.63;5054109;28;20329;-74
2022/05/05 09:59:49;;;;;;;4.30;1.58;;;;;;;19.35;19.81;102245.00;5051203;28;20037;-72
2022/05/05 10:05:15;;;;;;;12.52;1.92;;;;;;;19.82;20.35;102248.59;5049469;28;20436;-73
2022/05/05 10:07:44;;;;;;;4.93;1.25;;;;;;;20.47;19.48;102246.50;5067194;28;20072;-73
2022/05/05 10:10:13;;;;;;;4.60;1.60;;;;;;;19.94;18.90;102247.03;5035752;28;21379;-72
2022/05/05 10:12:39;;;;;;;4.55;1.40;;;;;;;19.98;19.35;102254.72;5050415;28;20127;-73
2022/05/05 10:15:06;;;;;;;5.72;2.38;;;;;;;18.88;20.81;102261.72;5050594;28;20053;-73
2022/05/05 10:17:34;;;;;;;7.05;2.22;;;;;;;18.19;21.19;102258.19;5051901;28;20068;-73
2022/05/05 10:20:00;;;;;;;16.33;3.85;;;;;;;18.64;21.59;102261.19;5048860;28;20127;-72
2022/05/05 10:22:39;;;;;;;5.38;1.52;;;;;;;18.79;21.28;102255.09;5047425;28;20048;-72
2022/05/05 10:25:13;;;;;;;5.53;1.65;;;;;;;18.53;21.87;102258.25;5049933;28;20028;-73
2022/05/05 10:27:45;;;;;;;4.53;1.90;;;;;;;19.48;20.65;102250.50;5051156;28;20056;-74
2022/05/05 10:30:34;;;;;;;7.43;1.80;;;;;;;20.62;19.47;102249.16;5048640;28;20036;-72
2022/05/05 10:33:00;;;;;;;4.18;1.60;;;;;;;20.09;20.50;102252.28;5036255;28;20048;-73
2022/05/05 10:35:26;;;;;;;3.10;1.92;;;;;;;18.87;21.36;102252.91;5040715;28;20047;-74
2022/05/05 10:37:52;;;;;;;4.53;1.90;;;;;;;18.79;22.09;102255.09;5036854;28;20463;-72
2022/05/05 10:40:18;;;;;;;4.13;1.70;;;;;;;19.00;21.50;102258.41;5041490;28;20087;-73
2022/05/05 10:42:45;;;;;;;2.67;2.08;;;;;;;18.56;21.37;102256.28;5038086;28;20049;-73
2022/05/05 10:45:17;;;;;;;4.40;1.42;;;;;;;19.07;21.38;102256.28;5038037;28;20520;-72
2022/05/05 10:47:58;;;;;;;5.28;2.10;;;;;;;19.15;21.41;102253.22;5035345;28;20091;-72
2022/05/05 10:50:30;;;;;;;3.92;1.65;;;;;;;19.54;20.77;102260.72;5025079;28;20033;-72
2022/05/05 10:52:57;;;;;;;5.32;2.42;;;;;;;19.10;21.61;102266.72;5036512;28;20582;-73
2022/05/05 10:55:32;;;;;;;4.97;2.00;;;;;;;19.75;20.96;102258.69;5035602;28;20037;-73
2022/05/05 10:57:58;;;;;;;9.27;2.78;;;;;;;19.94;22.32;102266.44;5037839;28;20135;-73
2022/05/05 11:00:44;;;;;;;6.18;2.45;;;;;;;19.86;22.67;102263.38;5038491;28;20029;-72
2022/05/05 11:03:10;;;;;;;5.85;1.92;;;;;;;19.67;22.77;102266.22;5035104;28;20064;-72
2022/05/05 11:05:38;;;;;;;5.22;2.17;;;;;;;19.24;23.16;102266.81;5038587;28;20673;-73
2022/05/05 11:08:09;;;;;;;3.78;2.15;;;;;;;19.38;21.95;102260.75;5036484;28;20059;-72
2022/05/05 11:10:41;;;;;;;4.65;2.20;;;;;;;19.36;22.73;102262.63;5037653;28;20025;-72
2022/05/05 11:13:35;;;;;;;6.15;2.30;;;;;;;19.54;23.51;102260.72;5034653;28;20033;-74
2022/05/05 11:22:20;;;;;;;6.93;2.35;;;;;;;19.89;21.72;102271.16;5032830;28;20045;-72
2022/05/05 11:24:49;;;;;;;5.05;2.17;;;;;;;19.83;23.61;102280.31;5031693;28;20110;-72
2022/05/05 11:27:22;;;;;;;6.47;2.83;;;;;;;19.98;24.11;102267.97;5033410;28;20067;-73
2022/05/05 11:29:54;;;;;;;6.55;2.75;;;;;;;20.59;22.56;102273.25;5032716;28;20442;-72
2022/05/05 11:32:20;;;;;;;6.15;2.08;;;;;;;20.60;21.93;102277.66;5034902;28;20052;-72
2022/05/05 11:34:48;;;;;;;5.10;2.90;;;;;;;20.19;22.06;102268.50;5031307;28;20040;-72
2022/05/05 11:37:14;;;;;;;6.53;2.05;;;;;;;20.39;22.15;102275.31;5032050;28;20048;-72
2022/05/05 11:39:41;;;;;;;5.68;2.22;;;;;;;20.52;21.62;102265.66;5056361;22;20047;-75
2022/05/05 11:42:11;;;;;;;4.00;2.35;;;;;;;20.16;22.19;102278.47;4987636;28;20085;-74
2022/05/05 11:44:37;;;;;;;7.13;2.85;;;;;;;21.05;22.72;102283.75;4995468;28;20038;-75
2022/05/05 11:47:14;;;;;;;6.13;2.47;;;;;;;21.03;21.41;102280.34;4996906;28;20046;-74
2022/05/05 11:49:43;;;;;;;7.95;2.72;;;;;;;21.09;21.88;102272.84;4992557;28;20037;-74
2022/05/05 11:52:14;;;;;;;4.22;1.95;;;;;;;20.31;21.31;102273.13;4977166;28;20082;-74
2022/05/05 11:54:39;;;;;;;5.00;3.28;;;;;;;20.58;21.44;102279.53;4979717;28;20038;-75
2022/05/05 11:57:06;;;;;;;7.20;3.53;;;;;;;20.29;21.72;102279.47;4978248;28;20049;-73
2022/05/05 12:02:22;;;;;;;9.10;2.90;;;;;;;20.88;21.78;102264.38;4972943;28;20145;-73
2022/05/05 12:04:58;;;;;;;6.35;3.35;;;;;;;20.91;21.91;102272.19;4949419;28;20041;-73
2022/05/05 12:07:26;;;;;;;9.25;3.60;;;;;;;20.44;22.42;102273.25;4982356;28;20043;-72
2022/05/05 12:09:54;;;;;;;7.38;3.17;;;;;;;20.18;23.01;102271.25;4966146;28;20117;-75
2022/05/05 12:12:24;;;;;;;3.55;2.70;;;;;;;19.65;23.24;102268.13;4967379;28;20035;-73